sensor_id;sensor_type;location;lat;lon;timestamp;temperature;humidity
16674;DHT22;8450;52.654;10.326;2023-06-10T07:43:46;17.90;99.90
16674;DHT22;8450;52.654;10.326;2023-06-10T07:46:12;17.90;99.90
16674;DHT22;8450;52.654;10.326;2023-06-10T07:48:38;18.20;99.90
16674;DHT22;8450;52.654;10.326;2023-06-10T07:51:03;18.20;99.90
16674;DHT22;8450;52.654;10.326;2023-06-10T07:53:29;18.20;99.90
16674;DHT22;8450;52.654;10.326;2023-06-10T07:55:54;18.30;99.90
16674;DHT22;8450;52.654;10.326;2023-06-10T07:58:20;18.60;99.90
16674;DHT22;8450;52.654;10.326;2023-06-10T08:00:47;19.30;99.90
16674;DHT22;8450;52.654;10.326;2023-06-10T08:03:13;19.60;99.90
16674;DHT22;8450;52.654;10.326;2023-06-10T08:05:39;19.90;99.90
16674;DHT22;8450;52.654;10.326;2023-06-10T08:08:05;20.30;99.90
16674;DHT22;8450;52.654;10.326;2023-06-10T08:10:30;20.40;99.90
16674;DHT22;8450;52.654;10.326;2023-06-10T08:12:56;21.30;99.90
16674;DHT22;8450;52.654;10.326;2023-06-10T08:15:22;22.10;99.90
16674;DHT22;8450;52.654;10.326;2023-06-10T08:17:47;22.70;99.90
16674;DHT22;8450;52.654;10.326;2023-06-10T08:20:13;23.00;99.90
16674;DHT22;8450;52.654;10.326;2023-06-10T08:22:38;23.30;99.90
16674;DHT22;8450;52.654;10.326;2023-06-10T08:25:04;24.00;99.90
16674;DHT22;8450;52.654;10.326;2023-06-10T08:27:30;24.20;99.90
16674;DHT22;8450;52.654;10.326;2023-06-10T08:29:55;24.40;99.90
16674;DHT22;8450;52.654;10.326;2023-06-10T08:32:21;25.10;99.90
16674;DHT22;8450;52.654;10.326;2023-06-10T08:34:46;25.30;99.90
16674;DHT22;8450;52.654;10.326;2023-06-10T08:37:12;25.10;99.90
16674;DHT22;8450;52.654;10.326;2023-06-10T08:39:38;25.70;99.90
16674;DHT22;8450;52.654;10.326;2023-06-10T08:44:46;26.60;99.90
16674;DHT22;8450;52.654;10.326;2023-06-10T08:47:16;26.70;99.90
16674;DHT22;8450;52.654;10.326;2023-06-10T08:49:46;26.50;99.90
16674;DHT22;8450;52.654;10.326;2023-06-10T08:52:17;26.10;99.90
16674;DHT22;8450;52.654;10.326;2023-06-10T08:54:48;26.30;99.90
16674;DHT22;8450;52.654;10.326;2023-06-10T08:57:18;26.70;99.90
16674;DHT22;8450;52.654;10.326;2023-06-10T08:59:46;28.20;99.90
16674;DHT22;8450;52.654;10.326;2023-06-10T09:02:13;26.90;99.90
16674;DHT22;8450;52.654;10.326;2023-06-10T09:04:39;25.90;99.90
16674;DHT22;8450;52.654;10.326;2023-06-10T09:07:05;27.00;99.90
16674;DHT22;8450;52.654;10.326;2023-06-10T09:09:31;27.50;99.90
16674;DHT22;8450;52.654;10.326;2023-06-10T09:11:58;27.90;99.90
16674;DHT22;8450;52.654;10.326;2023-06-10T09:14:23;28.30;99.90
16674;DHT22;8450;52.654;10.326;2023-06-10T09:16:49;28.10;99.90
16674;DHT22;8450;52.654;10.326;2023-06-10T09:19:16;27.90;99.90
16674;DHT22;8450;52.654;10.326;2023-06-10T09:21:42;28.80;99.90
16674;DHT22;8450;52.654;10.326;2023-06-10T09:24:08;29.80;99.90
16674;DHT22;8450;52.654;10.326;2023-06-10T09:26:33;29.40;99.90
16674;DHT22;8450;52.654;10.326;2023-06-10T09:29:06;29.60;99.90
16674;DHT22;8450;52.654;10.326;2023-06-10T09:31:35;29.80;99.90
16674;DHT22;8450;52.654;10.326;2023-06-10T09:34:15;30.20;99.90
16674;DHT22;8450;52.654;10.326;2023-06-10T09:36:42;30.50;99.90
16674;DHT22;8450;52.654;10.326;2023-06-10T09:39:16;30.70;99.90
16674;DHT22;8450;52.654;10.326;2023-06-10T09:41:42;30.70;99.90
16674;DHT22;8450;52.654;10.326;2023-06-10T09:44:17;30.50;99.90
16674;DHT22;8450;52.654;10.326;2023-06-10T09:46:45;31.40;99.90
16674;DHT22;8450;52.654;10.326;2023-06-10T09:49:10;30.20;99.90
16674;DHT22;8450;52.654;10.326;2023-06-10T09:51:36;31.00;99.90
16674;DHT22;8450;52.654;10.326;2023-06-10T09:54:03;32.00;99.90
16674;DHT22;8450;52.654;10.326;2023-06-10T09:56:36;31.40;99.90
16674;DHT22;8450;52.654;10.326;2023-06-10T09:59:03;31.70;99.90
16674;DHT22;8450;52.654;10.326;2023-06-10T10:01:30;30.60;99.90
16674;DHT22;8450;52.654;10.326;2023-06-10T10:03:56;31.90;99.90
16674;DHT22;8450;52.654;10.326;2023-06-10T10:06:21;31.80;99.90
16674;DHT22;8450;52.654;10.326;2023-06-10T10:08:50;32.30;99.90
16674;DHT22;8450;52.654;10.326;2023-06-10T10:11:21;31.70;99.90
16674;DHT22;8450;52.654;10.326;2023-06-10T10:13:49;32.30;99.90
16674;DHT22;8450;52.654;10.326;2023-06-10T10:16:19;32.70;99.90
16674;DHT22;8450;52.654;10.326;2023-06-10T10:18:54;32.60;99.90
16674;DHT22;8450;52.654;10.326;2023-06-10T10:21:27;32.70;99.90
16674;DHT22;8450;52.654;10.326;2023-06-10T10:24:12;32.20;99.90
16674;DHT22;8450;52.654;10.326;2023-06-10T10:26:40;31.60;99.90
16674;DHT22;8450;52.654;10.326;2023-06-10T10:31:50;31.60;99.90
